sensor_id;sensor_type;location;lat;lon;timestamp;temperature;humidity
3564;DHT22;1796;52.388;13.096;2022-08-19T00:01:39;20.50;99.90
3564;DHT22;1796;52.388;13.096;2022-08-19T00:04:08;20.60;99.90
3564;DHT22;1796;52.388;13.096;2022-08-19T00:06:36;20.60;99.90
3564;DHT22;1796;52.388;13.096;2022-08-19T00:09:06;20.60;99.90
3564;DHT22;1796;52.388;13.096;2022-08-19T00:11:36;20.70;99.90
3564;DHT22;1796;52.388;13.096;2022-08-19T00:14:03;20.70;99.90
3564;DHT22;1796;52.388;13.096;2022-08-19T00:16:30;20.70;99.90
3564;DHT22;1796;52.388;13.096;2022-08-19T00:18:57;20.70;99.90
3564;DHT22;1796;52.388;13.096;2022-08-19T00:21:25;20.60;99.90
3564;DHT22;1796;52.388;13.096;2022-08-19T00:23:52;20.40;99.90
3564;DHT22;1796;52.388;13.096;2022-08-19T00:26:20;20.30;99.90
3564;DHT22;1796;52.388;13.096;2022-08-19T00:28:48;20.20;99.90
3564;DHT22;1796;52.388;13.096;2022-08-19T00:31:16;20.10;99.90
3564;DHT22;1796;52.388;13.096;2022-08-19T00:33:43;20.10;99.90
3564;DHT22;1796;52.388;13.096;2022-08-19T00:36:11;20.10;99.90
3564;DHT22;1796;52.388;13.096;2022-08-19T00:38:39;20.10;99.90
3564;DHT22;1796;52.388;13.096;2022-08-19T00:41:09;20.10;99.90
3564;DHT22;1796;52.388;13.096;2022-08-19T00:43:36;20.00;99.90
3564;DHT22;1796;52.388;13.096;2022-08-19T00:46:05;20.00;99.90
3564;DHT22;1796;52.388;13.096;2022-08-19T00:48:33;20.00;99.90
3564;DHT22;1796;52.388;13.096;2022-08-19T00:51:01;19.90;99.90
3564;DHT22;1796;52.388;13.096;2022-08-19T00:53:30;19.80;99.90
3564;DHT22;1796;52.388;13.096;2022-08-19T00:56:00;19.80;99.90
3564;DHT22;1796;52.388;13.096;2022-08-19T00:58:30;19.70;99.90
3564;DHT22;1796;52.388;13.096;2022-08-19T01:00:57;19.70;99.90
3564;DHT22;1796;52.388;13.096;2022-08-19T01:03:26;19.70;99.90
3564;DHT22;1796;52.388;13.096;2022-08-19T01:05:54;19.80;99.90
3564;DHT22;1796;52.388;13.096;2022-08-19T01:08:22;19.80;99.90
3564;DHT22;1796;52.388;13.096;2022-08-19T01:10:53;19.80;99.90
3564;DHT22;1796;52.388;13.096;2022-08-19T01:13:23;19.80;99.90
3564;DHT22;1796;52.388;13.096;2022-08-19T01:15:54;19.80;99.90
3564;DHT22;1796;52.388;13.096;2022-08-19T01:18:22;19.90;99.90
3564;DHT22;1796;52.388;13.096;2022-08-19T01:20:52;19.90;99.90
3564;DHT22;1796;52.388;13.096;2022-08-19T01:23:22;19.70;99.90
3564;DHT22;1796;52.388;13.096;2022-08-19T01:26:08;19.50;99.90
3564;DHT22;1796;52.388;13.096;2022-08-19T01:28:36;19.50;99.90
3564;DHT22;1796;52.388;13.096;2022-08-19T01:31:04;19.60;99.90
3564;DHT22;1796;52.388;13.096;2022-08-19T01:33:31;19.60;99.90
3564;DHT22;1796;52.388;13.096;2022-08-19T01:36:05;19.60;99.90
3564;DHT22;1796;52.388;13.096;2022-08-19T01:38:36;19.60;99.90
3564;DHT22;1796;52.388;13.096;2022-08-19T01:41:03;19.50;99.90
3564;DHT22;1796;52.388;13.096;2022-08-19T01:43:31;19.50;99.90
3564;DHT22;1796;52.388;13.096;2022-08-19T01:45:59;19.50;99.90
3564;DHT22;1796;52.388;13.096;2022-08-19T01:48:26;19.60;99.90
3564;DHT22;1796;52.388;13.096;2022-08-19T01:50:55;19.50;99.90
3564;DHT22;1796;52.388;13.096;2022-08-19T01:53:22;19.50;99.90
3564;DHT22;1796;52.388;13.096;2022-08-19T01:55:51;19.60;99.90
3564;DHT22;1796;52.388;13.096;2022-08-19T01:58:21;19.60;99.90
3564;DHT22;1796;52.388;13.096;2022-08-19T02:00:49;19.60;99.90
3564;DHT22;1796;52.388;13.096;2022-08-19T02:03:16;19.50;99.90
3564;DHT22;1796;52.388;13.096;2022-08-19T02:05:43;19.40;99.90
3564;DHT22;1796;52.388;13.096;2022-08-19T02:08:11;19.50;99.90
3564;DHT22;1796;52.388;13.096;2022-08-19T02:10:40;19.40;99.90
3564;DHT22;1796;52.388;13.096;2022-08-19T02:13:09;19.40;99.90
3564;DHT22;1796;52.388;13.096;2022-08-19T02:15:37;19.50;99.90
3564;DHT22;1796;52.388;13.096;2022-08-19T02:18:04;19.40;99.90
3564;DHT22;1796;52.388;13.096;2022-08-19T02:20:32;19.40;99.90
3564;DHT22;1796;52.388;13.096;2022-08-19T02:22:59;19.30;99.90
3564;DHT22;1796;52.388;13.096;2022-08-19T02:25:27;19.30;99.90
3564;DHT22;1796;52.388;13.096;2022-08-19T02:27:54;19.30;99.90
3564;DHT22;1796;52.388;13.096;2022-08-19T02:30:23;19.40;99.90
3564;DHT22;1796;52.388;13.096;2022-08-19T02:32:50;19.40;99.90
3564;DHT22;1796;52.388;13.096;2022-08-19T02:35:17;19.30;99.90
3564;DHT22;1796;52.388;13.096;2022-08-19T02:37:44;19.20;99.90
3564;DHT22;1796;52.388;13.096;2022-08-19T02:40:29;19.30;99.90
3564;DHT22;1796;52.388;13.096;2022-08-19T02:42:59;19.30;99.90
3564;DHT22;1796;52.388;13.096;2022-08-19T02:45:31;19.30;99.90
3564;DHT22;1796;52.388;13.096;2022-08-19T02:47:58;19.30;99.90
3564;DHT22;1796;52.388;13.096;2022-08-19T02:50:25;19.30;99.90
3564;DHT22;1796;52.388;13.096;2022-08-19T02:52:52;19.20;99.90
3564;DHT22;1796;52.388;13.096;2022-08-19T02:55:19;19.30;99.90
3564;DHT22;1796;52.388;13.096;2022-08-19T02:57:46;19.20;99.90
3564;DHT22;1796;52.388;13.096;2022-08-19T03:00:14;19.20;99.90
3564;DHT22;1796;52.388;13.096;2022-08-19T03:02:43;19.20;99.90
3564;DHT22;1796;52.388;13.096;2022-08-19T03:05:10;19.30;99.90
3564;DHT22;1796;52.388;13.096;2022-08-19T03:07:37;19.30;99.90
3564;DHT22;1796;52.388;13.096;2022-08-19T03:10:05;19.20;99.90
3564;DHT22;1796;52.388;13.096;2022-08-19T03:12:35;19.30;99.90
3564;DHT22;1796;52.388;13.096;2022-08-19T03:15:03;19.30;99.90
3564;DHT22;1796;52.388;13.096;2022-08-19T03:17:31;19.30;99.90
3564;DHT22;1796;52.388;13.096;2022-08-19T03:19:59;19.20;99.90
3564;DHT22;1796;52.388;13.096;2022-08-19T03:22:26;19.20;99.90
3564;DHT22;1796;52.388;13.096;2022-08-19T03:24:53;19.20;99.90
3564;DHT22;1796;52.388;13.096;2022-08-19T03:27:20;19.20;99.90
3564;DHT22;1796;52.388;13.096;2022-08-19T03:29:47;19.30;99.90
3564;DHT22;1796;52.388;13.096;2022-08-19T03:32:14;19.20;99.90
3564;DHT22;1796;52.388;13.096;2022-08-19T03:34:40;19.20;99.90
3564;DHT22;1796;52.388;13.096;2022-08-19T03:37:11;19.20;99.90
3564;DHT22;1796;52.388;13.096;2022-08-19T03:39:40;19.20;99.90
3564;DHT22;1796;52.388;13.096;2022-08-19T03:42:08;19.20;99.90
3564;DHT22;1796;52.388;13.096;2022-08-19T03:44:35;19.20;99.90
3564;DHT22;1796;52.388;13.096;2022-08-19T03:47:03;19.20;99.90
3564;DHT22;1796;52.388;13.096;2022-08-19T03:49:32;19.10;99.90
3564;DHT22;1796;52.388;13.096;2022-08-19T03:52:01;19.10;99.90
3564;DHT22;1796;52.388;13.096;2022-08-19T03:54:32;19.10;99.90
3564;DHT22;1796;52.388;13.096;2022-08-19T03:56:59;19.10;99.90
3564;DHT22;1796;52.388;13.096;2022-08-19T03:59:27;19.10;99.90
3564;DHT22;1796;52.388;13.096;2022-08-19T04:01:56;19.10;99.90
3564;DHT22;1796;52.388;13.096;2022-08-19T04:04:24;19.10;99.90
3564;DHT22;1796;52.388;13.096;2022-08-19T04:06:52;19.20;99.90
3564;DHT22;1796;52.388;13.096;2022-08-19T04:09:19;19.20;99.90
3564;DHT22;1796;52.388;13.096;2022-08-19T04:11:49;19.20;99.90
3564;DHT22;1796;52.388;13.096;2022-08-19T04:14:21;19.20;99.90
3564;DHT22;1796;52.388;13.096;2022-08-19T04:16:49;19.20;99.90
3564;DHT22;1796;52.388;13.096;2022-08-19T04:19:18;19.20;99.90
3564;DHT22;1796;52.388;13.096;2022-08-19T04:21:47;19.20;99.90
3564;DHT22;1796;52.388;13.096;2022-08-19T04:24:14;19.20;99.90
3564;DHT22;1796;52.388;13.096;2022-08-19T04:26:41;19.20;99.90
3564;DHT22;1796;52.388;13.096;2022-08-19T04:29:13;19.20;99.90
3564;DHT22;1796;52.388;13.096;2022-08-19T04:31:42;19.20;99.90
3564;DHT22;1796;52.388;13.096;2022-08-19T04:34:11;19.20;99.90
3564;DHT22;1796;52.388;13.096;2022-08-19T04:36:40;19.20;99.90
3564;DHT22;1796;52.388;13.096;2022-08-19T04:39:09;19.10;99.90
3564;DHT22;1796;52.388;13.096;2022-08-19T04:41:36;19.20;99.90
3564;DHT22;1796;52.388;13.096;2022-08-19T04:44:22;19.20;99.90
3564;DHT22;1796;52.388;13.096;2022-08-19T04:46:50;19.20;99.90
3564;DHT22;1796;52.388;13.096;2022-08-19T04:49:19;19.20;99.90
3564;DHT22;1796;52.388;13.096;2022-08-19T04:51:47;19.30;99.90
3564;DHT22;1796;52.388;13.096;2022-08-19T04:54:15;19.20;99.90
3564;DHT22;1796;52.388;13.096;2022-08-19T04:56:43;19.30;99.90
3564;DHT22;1796;52.388;13.096;2022-08-19T04:59:10;19.50;99.90
3564;DHT22;1796;52.388;13.096;2022-08-19T05:01:38;19.40;99.90
3564;DHT22;1796;52.388;13.096;2022-08-19T05:04:06;19.50;99.90
3564;DHT22;1796;52.388;13.096;2022-08-19T05:06:34;19.80;99.90
3564;DHT22;1796;52.388;13.096;2022-08-19T05:09:04;19.80;99.90
3564;DHT22;1796;52.388;13.096;2022-08-19T05:11:33;19.70;99.90
3564;DHT22;1796;52.388;13.096;2022-08-19T05:14:01;19.90;99.90
3564;DHT22;1796;52.388;13.096;2022-08-19T05:16:28;19.80;99.90
3564;DHT22;1796;52.388;13.096;2022-08-19T05:18:56;19.90;99.90
3564;DHT22;1796;52.388;13.096;2022-08-19T05:21:41;19.70;99.90
3564;DHT22;1796;52.388;13.096;2022-08-19T05:24:26;19.90;99.90
3564;DHT22;1796;52.388;13.096;2022-08-19T05:26:54;19.80;99.90
3564;DHT22;1796;52.388;13.096;2022-08-19T05:29:25;19.70;99.90
3564;DHT22;1796;52.388;13.096;2022-08-19T05:31:53;20.00;99.90
3564;DHT22;1796;52.388;13.096;2022-08-19T05:34:23;20.10;99.90
3564;DHT22;1796;52.388;13.096;2022-08-19T05:36:53;20.40;99.90
3564;DHT22;1796;52.388;13.096;2022-08-19T05:39:21;20.40;99.90
3564;DHT22;1796;52.388;13.096;2022-08-19T05:41:51;20.40;99.90
3564;DHT22;1796;52.388;13.096;2022-08-19T05:44:20;20.50;99.90
3564;DHT22;1796;52.388;13.096;2022-08-19T05:46:48;20.40;99.90
3564;DHT22;1796;52.388;13.096;2022-08-19T05:49:18;20.50;99.90
3564;DHT22;1796;52.388;13.096;2022-08-19T05:51:48;20.40;99.90
3564;DHT22;1796;52.388;13.096;2022-08-19T05:54:15;20.50;99.90
3564;DHT22;1796;52.388;13.096;2022-08-19T05:56:43;20.60;99.90
3564;DHT22;1796;52.388;13.096;2022-08-19T05:59:13;20.40;99.90
3564;DHT22;1796;52.388;13.096;2022-08-19T06:01:43;20.40;99.90
3564;DHT22;1796;52.388;13.096;2022-08-19T06:04:10;20.50;99.90
3564;DHT22;1796;52.388;13.096;2022-08-19T06:06:37;20.70;99.90
3564;DHT22;1796;52.388;13.096;2022-08-19T06:09:07;20.80;99.90
3564;DHT22;1796;52.388;13.096;2022-08-19T06:11:38;21.00;99.90
3564;DHT22;1796;52.388;13.096;2022-08-19T06:14:08;21.00;99.90
3564;DHT22;1796;52.388;13.096;2022-08-19T06:16:36;21.20;99.90
3564;DHT22;1796;52.388;13.096;2022-08-19T06:19:07;21.10;99.90
3564;DHT22;1796;52.388;13.096;2022-08-19T06:21:36;21.10;99.90
3564;DHT22;1796;52.388;13.096;2022-08-19T06:24:06;21.10;99.90
3564;DHT22;1796;52.388;13.096;2022-08-19T06:26:34;21.20;99.90
3564;DHT22;1796;52.388;13.096;2022-08-19T06:29:02;21.20;99.90
3564;DHT22;1796;52.388;13.096;2022-08-19T06:31:31;21.30;99.90
3564;DHT22;1796;52.388;13.096;2022-08-19T06:34:00;21.40;99.90
3564;DHT22;1796;52.388;13.096;2022-08-19T06:36:29;21.40;99.90
3564;DHT22;1796;52.388;13.096;2022-08-19T06:38:59;21.60;99.90
3564;DHT22;1796;52.388;13.096;2022-08-19T06:41:28;21.60;99.90
3564;DHT22;1796;52.388;13.096;2022-08-19T06:43:56;21.40;99.90
3564;DHT22;1796;52.388;13.096;2022-08-19T06:46:23;21.50;99.90
3564;DHT22;1796;52.388;13.096;2022-08-19T06:48:50;21.60;99.90
3564;DHT22;1796;52.388;13.096;2022-08-19T06:51:18;21.60;99.90
3564;DHT22;1796;52.388;13.096;2022-08-19T06:53:46;21.70;99.90
3564;DHT22;1796;52.388;13.096;2022-08-19T06:56:13;22.00;99.90
3564;DHT22;1796;52.388;13.096;2022-08-19T06:58:41;22.00;99.90
3564;DHT22;1796;52.388;13.096;2022-08-19T07:01:09;22.20;99.90
3564;DHT22;1796;52.388;13.096;2022-08-19T07:03:37;22.20;99.90
3564;DHT22;1796;52.388;13.096;2022-08-19T07:06:06;22.60;99.90
3564;DHT22;1796;52.388;13.096;2022-08-19T07:08:33;22.70;99.90
3564;DHT22;1796;52.388;13.096;2022-08-19T07:11:02;22.90;99.90
3564;DHT22;1796;52.388;13.096;2022-08-19T07:13:29;23.20;99.90
3564;DHT22;1796;52.388;13.096;2022-08-19T07:16:05;23.60;99.90
3564;DHT22;1796;52.388;13.096;2022-08-19T07:18:32;23.90;99.90
3564;DHT22;1796;52.388;13.096;2022-08-19T07:21:03;24.00;99.90
3564;DHT22;1796;52.388;13.096;2022-08-19T07:23:31;23.90;99.90
3564;DHT22;1796;52.388;13.096;2022-08-19T07:26:04;23.70;99.90
3564;DHT22;1796;52.388;13.096;2022-08-19T07:28:32;23.80;99.90
3564;DHT22;1796;52.388;13.096;2022-08-19T07:30:59;23.70;99.90
3564;DHT22;1796;52.388;13.096;2022-08-19T07:33:28;23.50;99.90
3564;DHT22;1796;52.388;13.096;2022-08-19T07:35:58;23.50;99.90
3564;DHT22;1796;52.388;13.096;2022-08-19T07:38:25;23.50;99.90
3564;DHT22;1796;52.388;13.096;2022-08-19T07:40:52;23.40;99.90
3564;DHT22;1796;52.388;13.096;2022-08-19T07:43:19;23.30;99.90
3564;DHT22;1796;52.388;13.096;2022-08-19T07:45:48;23.40;99.90
3564;DHT22;1796;52.388;13.096;2022-08-19T07:48:15;23.50;99.90
3564;DHT22;1796;52.388;13.096;2022-08-19T07:50:43;23.50;99.90
3564;DHT22;1796;52.388;13.096;2022-08-19T07:53:10;23.50;99.90
3564;DHT22;1796;52.388;13.096;2022-08-19T07:55:38;23.60;99.90
3564;DHT22;1796;52.388;13.096;2022-08-19T07:58:05;23.50;99.90
3564;DHT22;1796;52.388;13.096;2022-08-19T08:00:32;23.50;99.90
3564;DHT22;1796;52.388;13.096;2022-08-19T08:03:00;23.60;99.90
3564;DHT22;1796;52.388;13.096;2022-08-19T08:05:27;23.50;99.90
3564;DHT22;1796;52.388;13.096;2022-08-19T08:08:13;23.60;99.90
3564;DHT22;1796;52.388;13.096;2022-08-19T08:10:58;23.60;99.90
3564;DHT22;1796;52.388;13.096;2022-08-19T08:13:25;23.70;99.90
3564;DHT22;1796;52.388;13.096;2022-08-19T08:15:52;23.80;99.90
3564;DHT22;1796;52.388;13.096;2022-08-19T08:18:19;24.00;99.90
3564;DHT22;1796;52.388;13.096;2022-08-19T08:20:47;24.00;99.90
3564;DHT22;1796;52.388;13.096;2022-08-19T08:23:15;24.10;99.90
3564;DHT22;1796;52.388;13.096;2022-08-19T08:25:53;24.10;99.90
3564;DHT22;1796;52.388;13.096;2022-08-19T08:28:20;24.30;99.90
3564;DHT22;1796;52.388;13.096;2022-08-19T08:30:48;24.20;99.90
3564;DHT22;1796;52.388;13.096;2022-08-19T08:33:18;24.20;99.90
3564;DHT22;1796;52.388;13.096;2022-08-19T08:35:45;24.10;99.90
3564;DHT22;1796;52.388;13.096;2022-08-19T08:38:12;24.20;99.90
3564;DHT22;1796;52.388;13.096;2022-08-19T08:40:44;24.20;99.90
3564;DHT22;1796;52.388;13.096;2022-08-19T08:43:24;24.00;99.90
3564;DHT22;1796;52.388;13.096;2022-08-19T08:45:59;23.90;99.90
3564;DHT22;1796;52.388;13.096;2022-08-19T08:48:32;24.00;99.90
3564;DHT22;1796;52.388;13.096;2022-08-19T08:51:03;24.10;99.90
3564;DHT22;1796;52.388;13.096;2022-08-19T08:53:32;24.10;99.90
3564;DHT22;1796;52.388;13.096;2022-08-19T08:56:03;23.90;99.90
3564;DHT22;1796;52.388;13.096;2022-08-19T08:58:39;24.00;99.90
3564;DHT22;1796;52.388;13.096;2022-08-19T09:01:09;24.00;99.90
3564;DHT22;1796;52.388;13.096;2022-08-19T09:03:39;24.10;99.90
3564;DHT22;1796;52.388;13.096;2022-08-19T09:06:12;24.00;99.90
3564;DHT22;1796;52.388;13.096;2022-08-19T09:08:47;23.80;99.90
3564;DHT22;1796;52.388;13.096;2022-08-19T09:11:23;23.80;99.90
3564;DHT22;1796;52.388;13.096;2022-08-19T09:14:02;23.80;99.90
3564;DHT22;1796;52.388;13.096;2022-08-19T09:16:34;23.90;99.90
3564;DHT22;1796;52.388;13.096;2022-08-19T09:19:04;24.20;99.90
3564;DHT22;1796;52.388;13.096;2022-08-19T09:21:31;24.10;99.90
3564;DHT22;1796;52.388;13.096;2022-08-19T09:23:58;24.10;99.90
3564;DHT22;1796;52.388;13.096;2022-08-19T09:26:26;24.00;99.90
3564;DHT22;1796;52.388;13.096;2022-08-19T09:28:54;23.90;99.90
3564;DHT22;1796;52.388;13.096;2022-08-19T09:31:23;23.90;99.90
3564;DHT22;1796;52.388;13.096;2022-08-19T09:33:51;23.80;99.90
3564;DHT22;1796;52.388;13.096;2022-08-19T09:36:24;23.60;99.90
3564;DHT22;1796;52.388;13.096;2022-08-19T09:38:51;23.50;99.90
3564;DHT22;1796;52.388;13.096;2022-08-19T09:41:20;23.50;99.90
3564;DHT22;1796;52.388;13.096;2022-08-19T09:43:51;23.40;99.90
3564;DHT22;1796;52.388;13.096;2022-08-19T09:46:19;23.30;99.90
3564;DHT22;1796;52.388;13.096;2022-08-19T09:48:47;23.30;99.90
3564;DHT22;1796;52.388;13.096;2022-08-19T09:51:18;23.30;99.90
3564;DHT22;1796;52.388;13.096;2022-08-19T09:53:46;23.30;99.90
3564;DHT22;1796;52.388;13.096;2022-08-19T09:56:16;23.20;99.90
3564;DHT22;1796;52.388;13.096;2022-08-19T09:58:43;23.10;99.90
3564;DHT22;1796;52.388;13.096;2022-08-19T10:01:16;23.00;99.90
3564;DHT22;1796;52.388;13.096;2022-08-19T10:03:46;23.00;99.90
3564;DHT22;1796;52.388;13.096;2022-08-19T10:06:13;23.00;99.90
3564;DHT22;1796;52.388;13.096;2022-08-19T10:08:40;23.00;99.90
3564;DHT22;1796;52.388;13.096;2022-08-19T10:11:07;23.10;99.90
3564;DHT22;1796;52.388;13.096;2022-08-19T10:13:35;23.10;99.90
3564;DHT22;1796;52.388;13.096;2022-08-19T10:16:04;23.10;99.90
3564;DHT22;1796;52.388;13.096;2022-08-19T10:18:33;23.20;99.90
3564;DHT22;1796;52.388;13.096;2022-08-19T10:21:07;23.10;99.90
3564;DHT22;1796;52.388;13.096;2022-08-19T10:23:35;23.00;99.90
3564;DHT22;1796;52.388;13.096;2022-08-19T10:26:05;22.90;99.90
3564;DHT22;1796;52.388;13.096;2022-08-19T10:28:33;23.00;99.90
3564;DHT22;1796;52.388;13.096;2022-08-19T10:31:04;23.30;99.90
3564;DHT22;1796;52.388;13.096;2022-08-19T10:33:33;23.60;99.90
3564;DHT22;1796;52.388;13.096;2022-08-19T10:36:01;23.70;99.90
3564;DHT22;1796;52.388;13.096;2022-08-19T10:38:28;23.60;99.90
3564;DHT22;1796;52.388;13.096;2022-08-19T10:40:55;23.60;99.90
3564;DHT22;1796;52.388;13.096;2022-08-19T10:43:22;23.50;99.90
3564;DHT22;1796;52.388;13.096;2022-08-19T10:45:52;23.30;99.90
3564;DHT22;1796;52.388;13.096;2022-08-19T10:48:21;23.20;99.90
3564;DHT22;1796;52.388;13.096;2022-08-19T10:50:50;23.20;99.90
3564;DHT22;1796;52.388;13.096;2022-08-19T10:53:34;23.10;99.90
3564;DHT22;1796;52.388;13.096;2022-08-19T10:56:01;23.20;99.90
3564;DHT22;1796;52.388;13.096;2022-08-19T10:58:46;23.30;99.90
3564;DHT22;1796;52.388;13.096;2022-08-19T11:01:14;23.30;99.90
3564;DHT22;1796;52.388;13.096;2022-08-19T11:03:41;23.30;99.90
3564;DHT22;1796;52.388;13.096;2022-08-19T11:06:12;23.20;99.90
3564;DHT22;1796;52.388;13.096;2022-08-19T11:08:39;23.10;99.90
3564;DHT22;1796;52.388;13.096;2022-08-19T11:11:08;23.20;99.90
3564;DHT22;1796;52.388;13.096;2022-08-19T11:13:37;23.10;99.90
3564;DHT22;1796;52.388;13.096;2022-08-19T11:16:08;23.00;99.90
3564;DHT22;1796;52.388;13.096;2022-08-19T11:18:37;23.10;99.90
3564;DHT22;1796;52.388;13.096;2022-08-19T11:21:14;23.00;99.90
3564;DHT22;1796;52.388;13.096;2022-08-19T11:23:43;23.10;99.90
3564;DHT22;1796;52.388;13.096;2022-08-19T11:26:11;23.00;99.90
3564;DHT22;1796;52.388;13.096;2022-08-19T11:28:37;23.00;99.90
3564;DHT22;1796;52.388;13.096;2022-08-19T11:31:09;22.90;99.90
3564;DHT22;1796;52.388;13.096;2022-08-19T11:33:37;22.80;99.90
3564;DHT22;1796;52.388;13.096;2022-08-19T11:36:04;22.80;99.90
3564;DHT22;1796;52.388;13.096;2022-08-19T11:38:33;22.90;99.90
3564;DHT22;1796;52.388;13.096;2022-08-19T11:41:03;22.80;99.90
3564;DHT22;1796;52.388;13.096;2022-08-19T11:43:31;22.70;99.90
3564;DHT22;1796;52.388;13.096;2022-08-19T11:45:58;22.70;99.90
3564;DHT22;1796;52.388;13.096;2022-08-19T11:48:25;22.70;99.90
3564;DHT22;1796;52.388;13.096;2022-08-19T11:50:53;22.60;99.90
3564;DHT22;1796;52.388;13.096;2022-08-19T11:53:21;22.60;99.90
3564;DHT22;1796;52.388;13.096;2022-08-19T11:55:52;22.50;99.90
3564;DHT22;1796;52.388;13.096;2022-08-19T11:58:21;22.50;99.90
3564;DHT22;1796;52.388;13.096;2022-08-19T12:00:50;22.40;99.90
3564;DHT22;1796;52.388;13.096;2022-08-19T12:03:17;22.50;99.90
3564;DHT22;1796;52.388;13.096;2022-08-19T12:05:45;22.60;99.90
3564;DHT22;1796;52.388;13.096;2022-08-19T12:08:12;22.60;99.90
3564;DHT22;1796;52.388;13.096;2022-08-19T12:10:40;22.50;99.90
3564;DHT22;1796;52.388;13.096;2022-08-19T12:13:10;22.60;99.90
3564;DHT22;1796;52.388;13.096;2022-08-19T12:15:39;22.70;99.90
3564;DHT22;1796;52.388;13.096;2022-08-19T12:18:07;22.60;99.90
3564;DHT22;1796;52.388;13.096;2022-08-19T12:20:37;22.70;99.90
3564;DHT22;1796;52.388;13.096;2022-08-19T12:23:06;22.70;99.90
3564;DHT22;1796;52.388;13.096;2022-08-19T12:25:34;22.70;99.90
3564;DHT22;1796;52.388;13.096;2022-08-19T12:28:02;22.90;99.90
3564;DHT22;1796;52.388;13.096;2022-08-19T12:30:31;22.90;99.90
3564;DHT22;1796;52.388;13.096;2022-08-19T12:32:57;22.70;99.90
3564;DHT22;1796;52.388;13.096;2022-08-19T12:35:24;22.50;99.90
3564;DHT22;1796;52.388;13.096;2022-08-19T12:37:51;22.40;99.90
3564;DHT22;1796;52.388;13.096;2022-08-19T12:40:18;22.50;99.90
3564;DHT22;1796;52.388;13.096;2022-08-19T12:42:45;22.50;99.90
3564;DHT22;1796;52.388;13.096;2022-08-19T12:45:13;22.40;99.90
3564;DHT22;1796;52.388;13.096;2022-08-19T12:47:41;22.50;99.90
3564;DHT22;1796;52.388;13.096;2022-08-19T12:50:08;22.50;99.90
3564;DHT22;1796;52.388;13.096;2022-08-19T12:52:36;22.40;99.90
3564;DHT22;1796;52.388;13.096;2022-08-19T12:55:04;22.50;99.90
3564;DHT22;1796;52.388;13.096;2022-08-19T12:57:32;22.60;99.90
3564;DHT22;1796;52.388;13.096;2022-08-19T13:00:06;22.70;99.90
3564;DHT22;1796;52.388;13.096;2022-08-19T13:02:36;22.70;99.90
3564;DHT22;1796;52.388;13.096;2022-08-19T13:05:05;22.90;99.90
3564;DHT22;1796;52.388;13.096;2022-08-19T13:07:33;22.90;99.90
3564;DHT22;1796;52.388;13.096;2022-08-19T13:10:00;23.00;99.90
3564;DHT22;1796;52.388;13.096;2022-08-19T13:12:27;23.00;99.90
3564;DHT22;1796;52.388;13.096;2022-08-19T13:14:55;23.00;99.90
3564;DHT22;1796;52.388;13.096;2022-08-19T13:17:22;23.00;99.90
3564;DHT22;1796;52.388;13.096;2022-08-19T13:19:49;23.00;99.90
3564;DHT22;1796;52.388;13.096;2022-08-19T13:22:18;22.90;99.90
3564;DHT22;1796;52.388;13.096;2022-08-19T13:24:45;22.90;99.90
3564;DHT22;1796;52.388;13.096;2022-08-19T13:27:12;22.90;99.90
3564;DHT22;1796;52.388;13.096;2022-08-19T13:29:39;22.90;99.90
3564;DHT22;1796;52.388;13.096;2022-08-19T13:32:24;22.90;99.90
3564;DHT22;1796;52.388;13.096;2022-08-19T13:35:08;22.80;99.90
3564;DHT22;1796;52.388;13.096;2022-08-19T13:37:37;22.70;99.90
3564;DHT22;1796;52.388;13.096;2022-08-19T13:40:13;22.70;99.90
3564;DHT22;1796;52.388;13.096;2022-08-19T13:42:41;22.70;99.90
3564;DHT22;1796;52.388;13.096;2022-08-19T13:45:09;22.80;99.90
3564;DHT22;1796;52.388;13.096;2022-08-19T13:47:38;22.90;99.90
3564;DHT22;1796;52.388;13.096;2022-08-19T13:50:10;22.90;99.90
3564;DHT22;1796;52.388;13.096;2022-08-19T13:52:40;22.90;99.90
3564;DHT22;1796;52.388;13.096;2022-08-19T13:55:08;22.80;99.90
3564;DHT22;1796;52.388;13.096;2022-08-19T13:57:36;22.70;99.90
3564;DHT22;1796;52.388;13.096;2022-08-19T14:00:07;22.70;99.90
3564;DHT22;1796;52.388;13.096;2022-08-19T14:02:35;22.50;99.90
3564;DHT22;1796;52.388;13.096;2022-08-19T14:05:03;22.40;99.90
3564;DHT22;1796;52.388;13.096;2022-08-19T14:07:31;22.50;99.90
3564;DHT22;1796;52.388;13.096;2022-08-19T14:09:59;22.50;99.90
3564;DHT22;1796;52.388;13.096;2022-08-19T14:12:26;22.50;99.90
3564;DHT22;1796;52.388;13.096;2022-08-19T14:14:53;22.60;99.90
3564;DHT22;1796;52.388;13.096;2022-08-19T14:17:20;22.50;99.90
3564;DHT22;1796;52.388;13.096;2022-08-19T14:19:47;22.50;99.90
3564;DHT22;1796;52.388;13.096;2022-08-19T14:22:14;22.60;99.90
3564;DHT22;1796;52.388;13.096;2022-08-19T14:24:41;22.60;99.90
3564;DHT22;1796;52.388;13.096;2022-08-19T14:27:09;22.50;99.90
3564;DHT22;1796;52.388;13.096;2022-08-19T14:29:36;22.50;99.90
3564;DHT22;1796;52.388;13.096;2022-08-19T14:32:04;22.60;99.90
3564;DHT22;1796;52.388;13.096;2022-08-19T14:34:31;22.50;99.90
3564;DHT22;1796;52.388;13.096;2022-08-19T14:36:59;22.50;99.90
3564;DHT22;1796;52.388;13.096;2022-08-19T14:39:26;22.50;99.90
3564;DHT22;1796;52.388;13.096;2022-08-19T14:41:53;22.60;99.90
3564;DHT22;1796;52.388;13.096;2022-08-19T14:44:21;22.50;99.90
3564;DHT22;1796;52.388;13.096;2022-08-19T14:46:48;22.50;99.90
3564;DHT22;1796;52.388;13.096;2022-08-19T14:49:15;22.50;99.90
3564;DHT22;1796;52.388;13.096;2022-08-19T14:51:42;22.50;99.90
3564;DHT22;1796;52.388;13.096;2022-08-19T14:54:11;22.40;99.90
3564;DHT22;1796;52.388;13.096;2022-08-19T14:56:40;22.40;99.90
3564;DHT22;1796;52.388;13.096;2022-08-19T14:59:07;22.40;99.90
3564;DHT22;1796;52.388;13.096;2022-08-19T15:01:35;22.30;99.90
3564;DHT22;1796;52.388;13.096;2022-08-19T15:04:03;22.20;99.90
3564;DHT22;1796;52.388;13.096;2022-08-19T15:06:30;22.20;99.90
3564;DHT22;1796;52.388;13.096;2022-08-19T15:08:57;22.10;99.90
3564;DHT22;1796;52.388;13.096;2022-08-19T15:11:26;22.10;99.90
3564;DHT22;1796;52.388;13.096;2022-08-19T15:13:54;22.10;99.90
3564;DHT22;1796;52.388;13.096;2022-08-19T15:16:22;22.10;99.90
3564;DHT22;1796;52.388;13.096;2022-08-19T15:18:55;22.20;99.90
3564;DHT22;1796;52.388;13.096;2022-08-19T15:21:24;22.20;99.90
3564;DHT22;1796;52.388;13.096;2022-08-19T15:23:51;22.10;99.90
3564;DHT22;1796;52.388;13.096;2022-08-19T15:26:19;22.20;99.90
3564;DHT22;1796;52.388;13.096;2022-08-19T15:28:48;22.20;99.90
3564;DHT22;1796;52.388;13.096;2022-08-19T15:31:18;22.10;99.90
3564;DHT22;1796;52.388;13.096;2022-08-19T15:33:46;22.10;99.90
3564;DHT22;1796;52.388;13.096;2022-08-19T15:36:15;22.20;99.90
3564;DHT22;1796;52.388;13.096;2022-08-19T15:38:42;22.20;99.90
3564;DHT22;1796;52.388;13.096;2022-08-19T15:41:16;22.20;99.90
3564;DHT22;1796;52.388;13.096;2022-08-19T15:43:51;22.20;99.90
3564;DHT22;1796;52.388;13.096;2022-08-19T15:46:21;22.10;99.90
3564;DHT22;1796;52.388;13.096;2022-08-19T15:48:48;22.00;99.90
3564;DHT22;1796;52.388;13.096;2022-08-19T15:51:17;21.90;99.90
3564;DHT22;1796;52.388;13.096;2022-08-19T15:53:44;21.80;99.90
3564;DHT22;1796;52.388;13.096;2022-08-19T15:56:11;21.90;99.90